sensor_id;sensor_type;location;lat;lon;timestamp;pressure;altitude;pressure_sealevel;temperature;humidity
69971;BME280;57301;50.328;8.542;2023-03-13T00:01:40;97742.88;;;9.22;74.33
69971;BME280;57301;50.328;8.542;2023-03-13T00:04:07;97743.19;;;9.19;75.06
69971;BME280;57301;50.328;8.542;2023-03-13T00:06:35;97732.06;;;9.23;75.01
69971;BME280;57301;50.328;8.542;2023-03-13T00:09:05;97738.56;;;9.29;74.27
69971;BME280;57301;50.328;8.542;2023-03-13T00:11:32;97733.38;;;9.19;74.59
69971;BME280;57301;50.328;8.542;2023-03-13T00:14:01;97729.41;;;9.23;74.83
69971;BME280;57301;50.328;8.542;2023-03-13T00:16:28;97728.09;;;9.35;74.64
69971;BME280;57301;50.328;8.542;2023-03-13T00:18:55;97713.13;;;9.34;74.03
69971;BME280;57301;50.328;8.542;2023-03-13T00:21:25;97717.78;;;9.40;73.76
69971;BME280;57301;50.328;8.542;2023-03-13T00:23:52;97711.28;;;9.43;74.15
69971;BME280;57301;50.328;8.542;2023-03-13T00:26:21;97715.44;;;9.37;74.46
69971;BME280;57301;50.328;8.542;2023-03-13T00:28:48;97707.94;;;9.33;74.78
69971;BME280;57301;50.328;8.542;2023-03-13T00:31:24;97693.66;;;9.34;74.29
69971;BME280;57301;50.328;8.542;2023-03-13T00:33:57;97692.16;;;9.31;74.51
69971;BME280;57301;50.328;8.542;2023-03-13T00:36:25;97686.50;;;9.26;74.61
69971;BME280;57301;50.328;8.542;2023-03-13T00:38:53;97679.19;;;9.28;75.18
69971;BME280;57301;50.328;8.542;2023-03-13T00:41:22;97678.50;;;9.26;75.10
69971;BME280;57301;50.328;8.542;2023-03-13T00:43:50;97667.53;;;9.37;74.88
69971;BME280;57301;50.328;8.542;2023-03-13T00:46:19;97663.22;;;9.20;75.33
69971;BME280;57301;50.328;8.542;2023-03-13T00:48:46;97658.75;;;9.29;74.50
69971;BME280;57301;50.328;8.542;2023-03-13T00:51:14;97648.41;;;9.26;75.45
69971;BME280;57301;50.328;8.542;2023-03-13T00:53:41;97639.28;;;9.28;74.79
69971;BME280;57301;50.328;8.542;2023-03-13T00:56:10;97643.44;;;9.23;75.74
69971;BME280;57301;50.328;8.542;2023-03-13T00:58:38;97631.97;;;9.30;75.87
69971;BME280;57301;50.328;8.542;2023-03-13T01:01:12;97635.94;;;9.26;75.77
69971;BME280;57301;50.328;8.542;2023-03-13T01:03:41;97632.47;;;9.34;75.61
69971;BME280;57301;50.328;8.542;2023-03-13T01:06:14;97627.66;;;9.29;75.58
69971;BME280;57301;50.328;8.542;2023-03-13T01:08:41;97629.31;;;9.30;76.17
69971;BME280;57301;50.328;8.542;2023-03-13T01:11:13;97625.31;;;9.42;75.56
69971;BME280;57301;50.328;8.542;2023-03-13T01:13:40;97617.00;;;9.29;75.78
69971;BME280;57301;50.328;8.542;2023-03-13T01:16:12;97622.97;;;9.31;76.28
69971;BME280;57301;50.328;8.542;2023-03-13T01:18:41;97607.38;;;9.28;76.00
69971;BME280;57301;50.328;8.542;2023-03-13T01:21:08;97607.69;;;9.41;76.06
69971;BME280;57301;50.328;8.542;2023-03-13T01:23:34;97608.69;;;9.40;75.64
69971;BME280;57301;50.328;8.542;2023-03-13T01:26:03;97609.00;;;9.46;75.55
69971;BME280;57301;50.328;8.542;2023-03-13T01:28:30;97590.03;;;9.49;75.62
69971;BME280;57301;50.328;8.542;2023-03-13T01:30:58;97589.84;;;9.50;75.67
69971;BME280;57301;50.328;8.542;2023-03-13T01:33:25;97579.22;;;9.50;75.42
69971;BME280;57301;50.328;8.542;2023-03-13T01:35:52;97572.41;;;9.48;75.10
69971;BME280;57301;50.328;8.542;2023-03-13T01:38:25;97565.28;;;9.40;75.72
69971;BME280;57301;50.328;8.542;2023-03-13T01:40:52;97563.44;;;9.49;75.59
69971;BME280;57301;50.328;8.542;2023-03-13T01:43:24;97561.25;;;9.44;75.38
69971;BME280;57301;50.328;8.542;2023-03-13T01:45:59;97559.59;;;9.43;75.97
69971;BME280;57301;50.328;8.542;2023-03-13T01:48:56;97555.63;;;9.47;75.50
69971;BME280;57301;50.328;8.542;2023-03-13T01:51:37;97554.78;;;9.47;76.05
69971;BME280;57301;50.328;8.542;2023-03-13T01:54:12;97546.28;;;9.51;75.26
69971;BME280;57301;50.328;8.542;2023-03-13T01:59:38;97547.63;;;9.47;78.26
69971;BME280;57301;50.328;8.542;2023-03-13T02:02:06;97536.84;;;9.40;78.80
69971;BME280;57301;50.328;8.542;2023-03-13T02:04:43;97540.03;;;9.28;79.90
69971;BME280;57301;50.328;8.542;2023-03-13T02:07:14;97533.22;;;9.17;80.97
69971;BME280;57301;50.328;8.542;2023-03-13T02:09:43;97527.56;;;9.20;81.98
69971;BME280;57301;50.328;8.542;2023-03-13T02:12:18;97530.41;;;9.10;82.23
69971;BME280;57301;50.328;8.542;2023-03-13T02:14:49;97519.78;;;8.86;85.18
69971;BME280;57301;50.328;8.542;2023-03-13T02:17:16;97516.63;;;8.74;86.00
69971;BME280;57301;50.328;8.542;2023-03-13T02:19:48;97520.78;;;8.60;87.52
69971;BME280;57301;50.328;8.542;2023-03-13T02:27:56;97503.16;;;8.43;90.44
69971;BME280;57301;50.328;8.542;2023-03-13T02:30:24;97497.53;;;8.54;90.73
69971;BME280;57301;50.328;8.542;2023-03-13T02:32:50;97486.41;;;8.51;90.38
69971;BME280;57301;50.328;8.542;2023-03-13T02:35:19;97489.72;;;8.37;90.87
69971;BME280;57301;50.328;8.542;2023-03-13T02:37:53;97488.16;;;8.26;91.53
69971;BME280;57301;50.328;8.542;2023-03-13T02:40:28;97486.81;;;8.22;91.51
69971;BME280;57301;50.328;8.542;2023-03-13T02:42:55;97484.50;;;8.27;91.73
69971;BME280;57301;50.328;8.542;2023-03-13T02:45:24;97477.06;;;8.30;89.92
69971;BME280;57301;50.328;8.542;2023-03-13T02:47:50;97463.44;;;8.17;90.87
69971;BME280;57301;50.328;8.542;2023-03-13T02:50:17;97464.63;;;8.23;92.06
69971;BME280;57301;50.328;8.542;2023-03-13T02:52:47;97463.16;;;8.37;92.01
69971;BME280;57301;50.328;8.542;2023-03-13T02:55:17;97466.28;;;8.32;90.56
69971;BME280;57301;50.328;8.542;2023-03-13T02:57:47;97462.97;;;8.38;90.26
69971;BME280;57301;50.328;8.542;2023-03-13T03:00:14;97459.19;;;8.49;91.75
69971;BME280;57301;50.328;8.542;2023-03-13T03:02:43;97460.50;;;8.37;91.13
69971;BME280;57301;50.328;8.542;2023-03-13T03:05:11;97431.94;;;8.39;91.34
69971;BME280;57301;50.328;8.542;2023-03-13T03:07:38;97433.09;;;8.36;91.77
69971;BME280;57301;50.328;8.542;2023-03-13T03:10:05;97430.28;;;8.38;93.33
69971;BME280;57301;50.328;8.542;2023-03-13T03:12:32;97430.94;;;8.40;91.85
69971;BME280;57301;50.328;8.542;2023-03-13T03:14:58;97433.09;;;8.44;92.54
69971;BME280;57301;50.328;8.542;2023-03-13T03:17:24;97432.56;;;8.32;93.16
69971;BME280;57301;50.328;8.542;2023-03-13T03:19:51;97429.44;;;8.37;93.37
69971;BME280;57301;50.328;8.542;2023-03-13T03:22:17;97424.31;;;8.44;93.96
69971;BME280;57301;50.328;8.542;2023-03-13T03:24:44;97427.44;;;8.39;93.90
69971;BME280;57301;50.328;8.542;2023-03-13T03:27:10;97408.84;;;8.39;94.95
69971;BME280;57301;50.328;8.542;2023-03-13T03:29:37;97411.66;;;8.46;93.60
69971;BME280;57301;50.328;8.542;2023-03-13T03:32:03;97404.69;;;8.45;94.78
69971;BME280;57301;50.328;8.542;2023-03-13T03:34:30;97398.06;;;8.41;94.91
69971;BME280;57301;50.328;8.542;2023-03-13T03:36:57;97405.00;;;8.33;95.95
69971;BME280;57301;50.328;8.542;2023-03-13T03:39:23;97406.00;;;8.24;96.41
69971;BME280;57301;50.328;8.542;2023-03-13T03:41:50;97397.38;;;8.22;97.52
69971;BME280;57301;50.328;8.542;2023-03-13T03:44:16;97395.72;;;8.21;98.11
69971;BME280;57301;50.328;8.542;2023-03-13T03:46:42;97394.44;;;8.42;98.78
69971;BME280;57301;50.328;8.542;2023-03-13T03:49:09;97394.44;;;8.42;99.50
69971;BME280;57301;50.328;8.542;2023-03-13T03:51:35;97384.28;;;8.45;99.89
69971;BME280;57301;50.328;8.542;2023-03-13T03:54:02;97386.78;;;8.39;99.96
69971;BME280;57301;50.328;8.542;2023-03-13T03:56:28;97404.03;;;8.51;99.72
69971;BME280;57301;50.328;8.542;2023-03-13T03:58:55;97377.16;;;8.54;99.28
69971;BME280;57301;50.328;8.542;2023-03-13T04:01:21;97373.44;;;8.71;98.87
69971;BME280;57301;50.328;8.542;2023-03-13T04:03:48;97361.81;;;8.80;98.42
69971;BME280;57301;50.328;8.542;2023-03-13T04:06:14;97370.59;;;8.81;98.14
69971;BME280;57301;50.328;8.542;2023-03-13T04:08:41;97357.81;;;8.84;98.52
69971;BME280;57301;50.328;8.542;2023-03-13T04:11:07;97343.34;;;8.87;99.42
69971;BME280;57301;50.328;8.542;2023-03-13T04:13:34;97361.75;;;8.88;98.83
69971;BME280;57301;50.328;8.542;2023-03-13T04:16:06;97357.22;;;9.05;97.68
69971;BME280;57301;50.328;8.542;2023-03-13T04:18:32;97342.28;;;9.04;98.23
69971;BME280;57301;50.328;8.542;2023-03-13T04:21:00;97351.09;;;9.05;99.00
69971;BME280;57301;50.328;8.542;2023-03-13T04:23:27;97344.59;;;9.07;98.26
69971;BME280;57301;50.328;8.542;2023-03-13T04:25:54;97345.03;;;9.19;97.02
69971;BME280;57301;50.328;8.542;2023-03-13T04:28:20;97331.91;;;9.18;98.92
69971;BME280;57301;50.328;8.542;2023-03-13T04:30:46;97341.50;;;9.27;97.44
69971;BME280;57301;50.328;8.542;2023-03-13T04:33:13;97338.69;;;9.28;98.29
69971;BME280;57301;50.328;8.542;2023-03-13T04:35:40;97335.47;;;9.33;97.21
69971;BME280;57301;50.328;8.542;2023-03-13T04:38:06;97348.44;;;9.36;97.79
69971;BME280;57301;50.328;8.542;2023-03-13T04:40:33;97335.97;;;9.36;97.90
69971;BME280;57301;50.328;8.542;2023-03-13T04:42:59;97361.56;;;9.37;98.53
69971;BME280;57301;50.328;8.542;2023-03-13T04:45:25;97346.97;;;9.33;98.37
69971;BME280;57301;50.328;8.542;2023-03-13T04:47:53;97337.44;;;9.39;98.40
69971;BME280;57301;50.328;8.542;2023-03-13T04:50:19;97336.59;;;9.47;97.69
69971;BME280;57301;50.328;8.542;2023-03-13T04:52:46;97344.72;;;9.45;97.31
69971;BME280;57301;50.328;8.542;2023-03-13T04:55:15;97345.59;;;9.46;96.69
69971;BME280;57301;50.328;8.542;2023-03-13T04:57:42;97343.44;;;9.41;96.98
69971;BME280;57301;50.328;8.542;2023-03-13T05:00:09;97334.63;;;9.40;97.78
69971;BME280;57301;50.328;8.542;2023-03-13T05:02:36;97334.25;;;9.43;97.28
69971;BME280;57301;50.328;8.542;2023-03-13T05:05:03;97317.28;;;9.45;97.97
69971;BME280;57301;50.328;8.542;2023-03-13T05:07:30;97310.31;;;9.43;98.10
69971;BME280;57301;50.328;8.542;2023-03-13T05:09:56;97316.31;;;9.46;97.89
69971;BME280;57301;50.328;8.542;2023-03-13T05:12:23;97306.13;;;9.49;97.88
69971;BME280;57301;50.328;8.542;2023-03-13T05:14:49;97309.28;;;9.53;97.12
69971;BME280;57301;50.328;8.542;2023-03-13T05:17:16;97305.59;;;9.54;97.23
69971;BME280;57301;50.328;8.542;2023-03-13T05:19:43;97292.13;;;9.55;97.09
69971;BME280;57301;50.328;8.542;2023-03-13T05:22:09;97299.78;;;9.50;97.42
69971;BME280;57301;50.328;8.542;2023-03-13T05:24:35;97286.09;;;9.61;97.15
69971;BME280;57301;50.328;8.542;2023-03-13T05:27:02;97280.94;;;9.60;97.46
69971;BME280;57301;50.328;8.542;2023-03-13T05:29:29;97285.25;;;9.61;97.99
69971;BME280;57301;50.328;8.542;2023-03-13T05:31:55;97269.59;;;9.66;97.49
69971;BME280;57301;50.328;8.542;2023-03-13T05:34:21;97275.75;;;9.66;97.45
69971;BME280;57301;50.328;8.542;2023-03-13T05:36:48;97303.25;;;9.59;98.46
69971;BME280;57301;50.328;8.542;2023-03-13T05:39:15;97309.53;;;9.66;97.69
69971;BME280;57301;50.328;8.542;2023-03-13T05:41:41;97304.19;;;9.66;97.70
69971;BME280;57301;50.328;8.542;2023-03-13T05:44:08;97295.78;;;9.77;98.37
69971;BME280;57301;50.328;8.542;2023-03-13T05:46:34;97281.66;;;9.77;96.82
69971;BME280;57301;50.328;8.542;2023-03-13T05:49:01;97282.41;;;9.85;96.85
69971;BME280;57301;50.328;8.542;2023-03-13T05:51:27;97276.59;;;9.82;97.58
69971;BME280;57301;50.328;8.542;2023-03-13T05:53:54;97274.34;;;9.93;97.74
69971;BME280;57301;50.328;8.542;2023-03-13T05:56:20;97274.00;;;9.96;97.24
69971;BME280;57301;50.328;8.542;2023-03-13T05:58:46;97278.50;;;9.96;97.39
69971;BME280;57301;50.328;8.542;2023-03-13T06:01:13;97273.00;;;9.98;98.64
69971;BME280;57301;50.328;8.542;2023-03-13T06:03:40;97250.56;;;9.92;97.68
69971;BME280;57301;50.328;8.542;2023-03-13T06:06:06;97246.75;;;10.09;97.45
69971;BME280;57301;50.328;8.542;2023-03-13T06:08:33;97246.84;;;10.16;96.41
69971;BME280;57301;50.328;8.542;2023-03-13T06:11:00;97240.63;;;10.23;96.41
69971;BME280;57301;50.328;8.542;2023-03-13T06:13:27;97243.56;;;10.14;96.11
69971;BME280;57301;50.328;8.542;2023-03-13T06:15:55;97234.63;;;10.21;96.85
69971;BME280;57301;50.328;8.542;2023-03-13T06:18:23;97232.38;;;10.33;95.09
69971;BME280;57301;50.328;8.542;2023-03-13T06:20:55;97251.78;;;10.27;94.79
69971;BME280;57301;50.328;8.542;2023-03-13T06:23:22;97252.06;;;10.32;94.83
69971;BME280;57301;50.328;8.542;2023-03-13T06:25:48;97252.34;;;10.37;94.65
69971;BME280;57301;50.328;8.542;2023-03-13T06:28:15;97257.38;;;10.32;94.74
69971;BME280;57301;50.328;8.542;2023-03-13T06:30:42;97243.31;;;10.38;95.36
69971;BME280;57301;50.328;8.542;2023-03-13T06:33:09;97250.28;;;10.54;94.63
69971;BME280;57301;50.328;8.542;2023-03-13T06:35:39;97239.53;;;10.47;95.27
69971;BME280;57301;50.328;8.542;2023-03-13T06:38:23;97247.72;;;10.46;95.52
69971;BME280;57301;50.328;8.542;2023-03-13T06:40:49;97247.94;;;10.44;94.93
69971;BME280;57301;50.328;8.542;2023-03-13T06:43:16;97256.09;;;10.58;95.26
69971;BME280;57301;50.328;8.542;2023-03-13T06:45:43;97253.50;;;10.49;94.53
69971;BME280;57301;50.328;8.542;2023-03-13T06:48:09;97242.75;;;10.43;96.46
69971;BME280;57301;50.328;8.542;2023-03-13T06:50:37;97240.38;;;10.48;95.85
69971;BME280;57301;50.328;8.542;2023-03-13T06:53:04;97245.41;;;10.43;95.68
69971;BME280;57301;50.328;8.542;2023-03-13T06:55:31;97243.50;;;10.52;95.18
69971;BME280;57301;50.328;8.542;2023-03-13T06:57:57;97246.19;;;10.52;95.58
69971;BME280;57301;50.328;8.542;2023-03-13T07:00:24;97256.16;;;10.49;96.18
69971;BME280;57301;50.328;8.542;2023-03-13T07:02:50;97254.25;;;10.58;95.71
69971;BME280;57301;50.328;8.542;2023-03-13T07:05:17;97258.38;;;10.61;95.61
69971;BME280;57301;50.328;8.542;2023-03-13T07:07:43;97273.19;;;10.63;95.56
69971;BME280;57301;50.328;8.542;2023-03-13T07:10:10;97277.31;;;10.66;94.71
69971;BME280;57301;50.328;8.542;2023-03-13T07:12:37;97271.63;;;10.69;94.06
69971;BME280;57301;50.328;8.542;2023-03-13T07:15:04;97279.78;;;10.67;94.37
69971;BME280;57301;50.328;8.542;2023-03-13T07:17:31;97283.56;;;10.73;94.55
69971;BME280;57301;50.328;8.542;2023-03-13T07:19:58;97285.06;;;10.75;94.55
69971;BME280;57301;50.328;8.542;2023-03-13T07:22:24;97282.75;;;10.72;94.30
69971;BME280;57301;50.328;8.542;2023-03-13T07:24:51;97283.41;;;10.74;94.41
69971;BME280;57301;50.328;8.542;2023-03-13T07:27:17;97279.25;;;10.72;94.41
69971;BME280;57301;50.328;8.542;2023-03-13T07:29:46;97282.00;;;10.79;94.13
69971;BME280;57301;50.328;8.542;2023-03-13T07:32:12;97273.06;;;11.01;93.82
69971;BME280;57301;50.328;8.542;2023-03-13T07:34:39;97260.63;;;11.08;92.28
69971;BME280;57301;50.328;8.542;2023-03-13T07:37:05;97239.44;;;11.21;91.64
69971;BME280;57301;50.328;8.542;2023-03-13T07:39:32;97247.28;;;11.08;91.12
69971;BME280;57301;50.328;8.542;2023-03-13T07:41:58;97250.00;;;11.29;90.82
69971;BME280;57301;50.328;8.542;2023-03-13T07:44:25;97254.97;;;11.33;90.34
69971;BME280;57301;50.328;8.542;2023-03-13T07:46:52;97243.28;;;11.55;89.78
69971;BME280;57301;50.328;8.542;2023-03-13T07:49:18;97253.88;;;11.27;91.14
69971;BME280;57301;50.328;8.542;2023-03-13T07:51:44;97241.00;;;11.52;90.40
69971;BME280;57301;50.328;8.542;2023-03-13T07:54:13;97241.75;;;11.67;89.01
69971;BME280;57301;50.328;8.542;2023-03-13T07:56:39;97235.59;;;11.67;88.74
69971;BME280;57301;50.328;8.542;2023-03-13T07:59:06;97240.47;;;11.63;89.88
69971;BME280;57301;50.328;8.542;2023-03-13T08:01:34;97242.91;;;11.58;89.51
69971;BME280;57301;50.328;8.542;2023-03-13T08:04:01;97244.44;;;11.67;88.81
69971;BME280;57301;50.328;8.542;2023-03-13T08:06:30;97258.16;;;11.64;88.86
69971;BME280;57301;50.328;8.542;2023-03-13T08:08:59;97241.00;;;11.73;88.39
69971;BME280;57301;50.328;8.542;2023-03-13T08:11:27;97262.88;;;11.83;88.17
69971;BME280;57301;50.328;8.542;2023-03-13T08:13:55;97248.19;;;11.94;86.38
69971;BME280;57301;50.328;8.542;2023-03-13T08:16:24;97239.97;;;11.74;87.33
69971;BME280;57301;50.328;8.542;2023-03-13T08:18:54;97236.75;;;11.79;87.13
69971;BME280;57301;50.328;8.542;2023-03-13T08:21:26;97239.97;;;11.96;87.04
69971;BME280;57301;50.328;8.542;2023-03-13T08:23:58;97227.94;;;12.06;85.55
69971;BME280;57301;50.328;8.542;2023-03-13T08:26:27;97237.03;;;12.40;84.25
69971;BME280;57301;50.328;8.542;2023-03-13T08:28:56;97224.56;;;12.26;85.03
69971;BME280;57301;50.328;8.542;2023-03-13T08:31:28;97220.91;;;12.33;83.70
69971;BME280;57301;50.328;8.542;2023-03-13T08:33:55;97228.75;;;12.35;83.23
69971;BME280;57301;50.328;8.542;2023-03-13T08:36:25;97232.47;;;12.34;82.78
69971;BME280;57301;50.328;8.542;2023-03-13T08:38:53;97233.69;;;12.38;83.72
69971;BME280;57301;50.328;8.542;2023-03-13T08:41:24;97236.69;;;12.56;82.73
69971;BME280;57301;50.328;8.542;2023-03-13T08:43:52;97221.59;;;12.77;82.45
69971;BME280;57301;50.328;8.542;2023-03-13T08:46:18;97226.47;;;12.67;82.28
69971;BME280;57301;50.328;8.542;2023-03-13T08:48:52;97233.69;;;12.73;82.04
69971;BME280;57301;50.328;8.542;2023-03-13T08:51:22;97248.69;;;12.67;82.46
69971;BME280;57301;50.328;8.542;2023-03-13T08:53:50;97235.78;;;12.77;82.68
69971;BME280;57301;50.328;8.542;2023-03-13T08:56:19;97240.06;;;12.72;83.50
69971;BME280;57301;50.328;8.542;2023-03-13T08:58:50;97238.31;;;12.51;84.38
69971;BME280;57301;50.328;8.542;2023-03-13T09:01:18;97237.06;;;12.47;84.15
69971;BME280;57301;50.328;8.542;2023-03-13T09:03:45;97224.16;;;12.63;82.66
69971;BME280;57301;50.328;8.542;2023-03-13T09:06:12;97239.53;;;12.89;82.51
69971;BME280;57301;50.328;8.542;2023-03-13T09:08:39;97245.34;;;13.00;81.88
69971;BME280;57301;50.328;8.542;2023-03-13T09:11:12;97232.38;;;12.97;80.59
69971;BME280;57301;50.328;8.542;2023-03-13T09:13:41;97223.75;;;13.01;80.72
69971;BME280;57301;50.328;8.542;2023-03-13T09:16:10;97214.13;;;13.20;78.89
69971;BME280;57301;50.328;8.542;2023-03-13T09:18:37;97196.06;;;13.42;77.86
69971;BME280;57301;50.328;8.542;2023-03-13T09:21:11;97204.72;;;13.44;77.96
69971;BME280;57301;50.328;8.542;2023-03-13T09:23:38;97188.84;;;13.42;76.36
69971;BME280;57301;50.328;8.542;2023-03-13T09:26:05;97189.50;;;13.44;76.48
69971;BME280;57301;50.328;8.542;2023-03-13T09:28:32;97190.34;;;13.65;76.68
69971;BME280;57301;50.328;8.542;2023-03-13T09:31:07;97189.09;;;13.67;75.92
69971;BME280;57301;50.328;8.542;2023-03-13T09:33:35;97192.19;;;13.78;76.26
69971;BME280;57301;50.328;8.542;2023-03-13T09:36:02;97192.59;;;13.94;74.80
69971;BME280;57301;50.328;8.542;2023-03-13T09:38:29;97182.28;;;13.91;74.91
69971;BME280;57301;50.328;8.542;2023-03-13T09:41:01;97179.63;;;13.78;75.20
69971;BME280;57301;50.328;8.542;2023-03-13T09:43:42;97183.53;;;13.89;75.72
69971;BME280;57301;50.328;8.542;2023-03-13T09:49:33;97169.03;;;14.23;74.68
69971;BME280;57301;50.328;8.542;2023-03-13T09:52:12;97175.56;;;14.60;73.59
69971;BME280;57301;50.328;8.542;2023-03-13T09:57:21;97179.94;;;14.55;74.75
69971;BME280;57301;50.328;8.542;2023-03-13T09:59:57;97202.06;;;14.30;75.41
69971;BME280;57301;50.328;8.542;2023-03-13T10:02:34;97187.00;;;14.49;74.84
69971;BME280;57301;50.328;8.542;2023-03-13T10:05:23;97194.59;;;14.39;74.96
69971;BME280;57301;50.328;8.542;2023-03-13T10:07:49;97198.16;;;14.91;74.63
69971;BME280;57301;50.328;8.542;2023-03-13T10:10:34;97197.63;;;15.20;72.67
69971;BME280;57301;50.328;8.542;2023-03-13T10:13:14;97217.94;;;14.25;75.66
69971;BME280;57301;50.328;8.542;2023-03-13T10:15:53;97192.13;;;14.57;76.77
69971;BME280;57301;50.328;8.542;2023-03-13T10:18:26;97189.34;;;15.28;74.40
69971;BME280;57301;50.328;8.542;2023-03-13T10:20:57;97187.69;;;16.34;71.19
69971;BME280;57301;50.328;8.542;2023-03-13T10:23:42;97178.63;;;15.15;73.09
69971;BME280;57301;50.328;8.542;2023-03-13T10:26:21;97174.59;;;15.69;72.41
69971;BME280;57301;50.328;8.542;2023-03-13T10:28:50;97176.56;;;16.67;69.13
69971;BME280;57301;50.328;8.542;2023-03-13T10:33:48;97172.28;;;16.23;69.55
69971;BME280;57301;50.328;8.542;2023-03-13T10:36:15;97191.66;;;14.73;75.23
69971;BME280;57301;50.328;8.542;2023-03-13T10:41:29;97169.09;;;17.78;66.89
69971;BME280;57301;50.328;8.542;2023-03-13T10:44:05;97173.97;;;16.79;66.43
69971;BME280;57301;50.328;8.542;2023-03-13T10:46:35;97174.84;;;15.29;71.94
69971;BME280;57301;50.328;8.542;2023-03-13T10:49:15;97163.28;;;15.61;72.42
69971;BME280;57301;50.328;8.542;2023-03-13T10:51:56;97172.72;;;15.70;72.38
69971;BME280;57301;50.328;8.542;2023-03-13T10:54:28;97155.16;;;14.59;74.08
69971;BME280;57301;50.328;8.542;2023-03-13T10:59:46;97171.72;;;16.94;67.73
69971;BME280;57301;50.328;8.542;2023-03-13T11:02:36;97153.00;;;16.62;67.26
69971;BME280;57301;50.328;8.542;2023-03-13T11:07:50;97142.31;;;16.37;69.07
69971;BME280;57301;50.328;8.542;2023-03-13T11:10:25;97142.66;;;17.14;67.04
69971;BME280;57301;50.328;8.542;2023-03-13T11:12:53;97134.94;;;16.33;68.31
69971;BME280;57301;50.328;8.542;2023-03-13T11:15:24;97128.69;;;16.14;69.71
69971;BME280;57301;50.328;8.542;2023-03-13T11:20:33;97134.97;;;16.63;68.57
69971;BME280;57301;50.328;8.542;2023-03-13T11:23:19;97130.94;;;15.17;72.43
69971;BME280;57301;50.328;8.542;2023-03-13T11:26:04;97150.19;;;14.63;74.82
69971;BME280;57301;50.328;8.542;2023-03-13T11:28:44;97147.03;;;14.08;77.91
69971;BME280;57301;50.328;8.542;2023-03-13T11:31:20;97135.09;;;13.90;79.70
69971;BME280;57301;50.328;8.542;2023-03-13T11:34:20;97146.63;;;13.38;82.91
69971;BME280;57301;50.328;8.542;2023-03-13T11:36:59;97122.72;;;13.23;85.13
69971;BME280;57301;50.328;8.542;2023-03-13T11:46:39;97131.88;;;12.87;88.06
69971;BME280;57301;50.328;8.542;2023-03-13T11:51:57;97121.63;;;12.98;87.91
69971;BME280;57301;50.328;8.542;2023-03-13T11:54:43;97110.72;;;12.99;87.49
69971;BME280;57301;50.328;8.542;2023-03-13T11:57:28;97101.88;;;13.18;86.40
69971;BME280;57301;50.328;8.542;2023-03-13T12:00:18;97101.84;;;12.92;86.76
69971;BME280;57301;50.328;8.542;2023-03-13T12:02:52;97075.31;;;12.90;86.95
69971;BME280;57301;50.328;8.542;2023-03-13T12:05:22;97080.88;;;12.89;87.47
69971;BME280;57301;50.328;8.542;2023-03-13T12:08:00;97082.31;;;12.98;86.70
69971;BME280;57301;50.328;8.542;2023-03-13T12:10:31;97074.88;;;12.87;85.47
69971;BME280;57301;50.328;8.542;2023-03-13T12:13:02;97082.91;;;12.87;85.00
69971;BME280;57301;50.328;8.542;2023-03-13T12:15:34;97074.25;;;12.85;85.30
69971;BME280;57301;50.328;8.542;2023-03-13T12:18:25;97067.66;;;12.74;85.20
69971;BME280;57301;50.328;8.542;2023-03-13T12:21:00;97068.09;;;12.78;85.68
69971;BME280;57301;50.328;8.542;2023-03-13T12:26:13;97069.69;;;12.66;86.02
69971;BME280;57301;50.328;8.542;2023-03-13T12:29:02;97053.91;;;12.84;86.71
69971;BME280;57301;50.328;8.542;2023-03-13T12:31:46;97044.47;;;13.14;84.72
69971;BME280;57301;50.328;8.542;2023-03-13T12:34:25;97050.41;;;13.10;84.06
69971;BME280;57301;50.328;8.542;2023-03-13T12:37:00;97048.78;;;13.02;84.80
69971;BME280;57301;50.328;8.542;2023-03-13T12:39:42;97038.88;;;12.96;85.03
69971;BME280;57301;50.328;8.542;2023-03-13T12:42:43;97039.28;;;13.19;83.26
69971;BME280;57301;50.328;8.542;2023-03-13T12:45:19;97041.78;;;13.08;83.91
69971;BME280;57301;50.328;8.542;2023-03-13T12:56:29;97016.28;;;13.38;83.30
69971;BME280;57301;50.328;8.542;2023-03-13T12:59:18;97005.53;;;13.52;81.67
69971;BME280;57301;50.328;8.542;2023-03-13T13:01:49;96992.06;;;13.78;80.47
69971;BME280;57301;50.328;8.542;2023-03-13T13:04:21;96985.91;;;13.71;79.89
69971;BME280;57301;50.328;8.542;2023-03-13T13:09:22;96982.75;;;13.94;79.07
69971;BME280;57301;50.328;8.542;2023-03-13T13:11:49;96978.03;;;13.83;78.97
69971;BME280;57301;50.328;8.542;2023-03-13T13:16:53;96979.75;;;14.15;78.80
69971;BME280;57301;50.328;8.542;2023-03-13T13:24:57;96967.88;;;14.36;77.50
69971;BME280;57301;50.328;8.542;2023-03-13T13:27:48;96945.59;;;14.36;77.24
69971;BME280;57301;50.328;8.542;2023-03-13T13:32:48;96927.00;;;14.09;78.38
69971;BME280;57301;50.328;8.542;2023-03-13T13:37:51;96912.72;;;13.77;80.91
69971;BME280;57301;50.328;8.542;2023-03-13T13:40:26;96913.59;;;13.64;81.59
69971;BME280;57301;50.328;8.542;2023-03-13T13:42:58;96895.22;;;13.75;81.18
69971;BME280;57301;50.328;8.542;2023-03-13T13:45:36;96903.06;;;13.76;80.63
69971;BME280;57301;50.328;8.542;2023-03-13T13:48:14;96890.97;;;13.98;79.37
69971;BME280;57301;50.328;8.542;2023-03-13T13:53:57;96863.28;;;14.36;78.32
69971;BME280;57301;50.328;8.542;2023-03-13T13:59:03;96870.53;;;14.36;78.62
69971;BME280;57301;50.328;8.542;2023-03-13T14:01:31;96867.63;;;14.12;78.65
69971;BME280;57301;50.328;8.542;2023-03-13T14:04:41;96860.06;;;14.28;78.40
69971;BME280;57301;50.328;8.542;2023-03-13T14:08:00;96847.28;;;14.55;77.41
69971;BME280;57301;50.328;8.542;2023-03-13T14:10:31;96846.78;;;14.39;78.04
69971;BME280;57301;50.328;8.542;2023-03-13T14:13:00;96844.91;;;14.40;78.27
69971;BME280;57301;50.328;8.542;2023-03-13T14:15:29;96838.97;;;14.38;77.96
69971;BME280;57301;50.328;8.542;2023-03-13T14:20:35;96828.06;;;14.33;77.93
69971;BME280;57301;50.328;8.542;2023-03-13T14:23:06;96817.44;;;14.19;78.34
69971;BME280;57301;50.328;8.542;2023-03-13T14:25:44;96805.22;;;14.23;78.25
69971;BME280;57301;50.328;8.542;2023-03-13T14:28:17;96810.66;;;14.17;78.79
69971;BME280;57301;50.328;8.542;2023-03-13T14:30:45;96806.28;;;14.22;78.43
69971;BME280;57301;50.328;8.542;2023-03-13T14:33:12;96791.88;;;14.17;80.96
69971;BME280;57301;50.328;8.542;2023-03-13T14:35:40;96786.09;;;14.20;81.63